createdAt,value
2019-05-17T00:00:04.224Z,100872.62
2019-05-17T00:00:40.219Z,100870.45
2019-05-17T00:01:16.712Z,100863.98
2019-05-17T00:01:52.902Z,100870.98
2019-05-17T00:02:28.813Z,100867.75
2019-05-17T00:03:06.851Z,100863.97
2019-05-17T00:03:42.512Z,100872.06
2019-05-17T00:04:18.403Z,100872.59
2019-05-17T00:04:56.330Z,100870.42
2019-05-17T00:05:32.659Z,100869.08
2019-05-17T00:06:08.561Z,100870.95
2019-05-17T00:06:44.561Z,100870.67
2019-05-17T00:07:20.451Z,100871.74
2019-05-17T00:07:56.766Z,100873.61
2019-05-17T00:08:34.830Z,100874.14
2019-05-17T00:09:10.584Z,100877.61
2019-05-17T00:09:47.826Z,100877.61
2019-05-17T00:10:26.366Z,100878.41
2019-05-17T00:11:01.741Z,100877.08
2019-05-17T00:11:37.666Z,100880.58
2019-05-17T00:12:13.576Z,100879.22
2019-05-17T00:12:50.218Z,100884.06
2019-05-17T00:13:26.840Z,100884.59
2019-05-17T00:14:02.993Z,100886.20
2019-05-17T00:14:38.966Z,100891.84
2019-05-17T00:15:16.958Z,100893.20
2019-05-17T00:15:53.372Z,100892.66
2019-05-17T00:16:29.540Z,100894.27
2019-05-17T00:17:06.678Z,100899.38
2019-05-17T00:17:42.819Z,100891.81
2019-05-17T00:18:18.726Z,100904.20
2019-05-17T00:18:56.724Z,100904.20
2019-05-17T00:19:32.598Z,100903.12
2019-05-17T00:20:09.691Z,100907.16
2019-05-17T00:20:46.553Z,100905.53
2019-05-17T00:21:22.790Z,100907.95
2019-05-17T00:21:58.636Z,100908.78
2019-05-17T00:22:36.559Z,100905.00
2019-05-17T00:23:12.207Z,100909.31
2019-05-17T00:23:48.147Z,100910.67
2019-05-17T00:24:26.357Z,100911.20
2019-05-17T00:25:01.776Z,100913.61
2019-05-17T00:25:37.696Z,100913.06
2019-05-17T00:26:13.580Z,100913.59
2019-05-17T00:26:49.449Z,100911.16
2019-05-17T00:27:26.486Z,100906.03
2019-05-17T00:28:02.672Z,100908.98
2019-05-17T00:28:38.533Z,100904.41
2019-05-17T00:29:14.587Z,100904.13
2019-05-17T00:29:50.497Z,100906.81
2019-05-17T00:30:26.704Z,100901.42
2019-05-17T00:31:02.685Z,100903.30
2019-05-17T00:31:38.586Z,100900.86
2019-05-17T00:32:17.010Z,100902.75
2019-05-17T00:32:52.319Z,100900.86
2019-05-17T00:33:28.235Z,100888.77
2019-05-17T00:34:04.243Z,100899.25
2019-05-17T00:34:40.123Z,100904.91
2019-05-17T00:35:17.893Z,100901.95
2019-05-17T00:35:56.176Z,100898.45
2019-05-17T00:36:31.691Z,100905.73
2019-05-17T00:37:07.690Z,100905.73
2019-05-17T00:37:43.646Z,100905.73
2019-05-17T00:38:19.566Z,100900.08
2019-05-17T00:38:56.785Z,100905.47
2019-05-17T00:39:33.236Z,100901.42
2019-05-17T00:40:09.487Z,100902.23
2019-05-17T00:40:47.018Z,100900.60
2019-05-17T00:41:23.172Z,100903.30
2019-05-17T00:41:59.111Z,100904.36
2019-05-17T00:42:37.103Z,100897.08
2019-05-17T00:43:12.761Z,100898.17
2019-05-17T00:43:48.684Z,100900.58
2019-05-17T00:44:24.579Z,100899.50
2019-05-17T00:45:00.614Z,100903.00
2019-05-17T00:45:37.771Z,100906.22
2019-05-17T00:46:17.226Z,100906.22
2019-05-17T00:46:54.606Z,100905.94
2019-05-17T00:47:30.516Z,100913.77
2019-05-17T00:48:06.791Z,100904.59
2019-05-17T00:48:42.845Z,100911.59
2019-05-17T00:49:18.781Z,100913.47
2019-05-17T00:49:56.845Z,100919.41
2019-05-17T00:50:32.523Z,100912.13
2019-05-17T00:51:10.484Z,100921.00
2019-05-17T00:51:47.495Z,100923.95
2019-05-17T00:52:23.957Z,100924.76
2019-05-17T00:52:59.865Z,100929.61
2019-05-17T00:53:36.278Z,100925.02
2019-05-17T00:54:12.316Z,100927.44
2019-05-17T00:54:48.179Z,100929.30
2019-05-17T00:55:24.095Z,100930.91
2019-05-17T00:55:59.997Z,100934.39
2019-05-17T00:56:37.181Z,100929.55
2019-05-17T00:57:13.251Z,100928.17
2019-05-17T00:57:49.135Z,100933.28
2019-05-17T00:58:26.327Z,100933.30
2019-05-17T00:59:02.338Z,100930.86
2019-05-17T00:59:38.390Z,100937.58
2019-05-17T01:00:16.882Z,100938.64
2019-05-17T01:00:52.125Z,100938.89
2019-05-17T01:01:28.002Z,100938.89
2019-05-17T01:02:03.972Z,100944.00
2019-05-17T01:02:39.967Z,100932.69
2019-05-17T01:03:16.315Z,100944.48
2019-05-17T01:03:52.418Z,100944.48
2019-05-17T01:04:29.139Z,100939.37
2019-05-17T01:05:06.374Z,100949.86
2019-05-17T01:05:42.541Z,100944.44
2019-05-17T01:06:18.487Z,100944.44
2019-05-17T01:06:56.254Z,100939.83
2019-05-17T01:07:32.455Z,100939.83
2019-05-17T01:08:08.406Z,100946.55
2019-05-17T01:08:46.387Z,100945.95
2019-05-17T01:09:21.956Z,100945.95
2019-05-17T01:09:57.903Z,100941.33
2019-05-17T01:10:33.771Z,100941.33
2019-05-17T01:11:09.672Z,100942.40
2019-05-17T01:11:47.426Z,100942.40
2019-05-17T01:12:23.569Z,100942.92
2019-05-17T01:12:59.561Z,100939.42
2019-05-17T01:13:37.472Z,100935.37
2019-05-17T01:14:14.387Z,100935.37
2019-05-17T01:14:50.362Z,100944.48
2019-05-17T01:15:27.318Z,100949.30
2019-05-17T01:16:03.612Z,100944.16
2019-05-17T01:16:39.483Z,100935.29
2019-05-17T01:17:16.524Z,100935.29
2019-05-17T01:17:52.728Z,100940.38
2019-05-17T01:18:28.594Z,100945.45
2019-05-17T01:19:06.800Z,100942.76
2019-05-17T01:19:43.080Z,100943.53
2019-05-17T01:20:19.018Z,100943.53
2019-05-17T01:20:56.810Z,100942.73
2019-05-17T01:21:32.840Z,100944.89
2019-05-17T01:22:08.721Z,100944.89
2019-05-17T01:22:44.599Z,100944.31
2019-05-17T01:23:20.456Z,100944.83
2019-05-17T01:23:56.465Z,100947.50
2019-05-17T01:24:32.398Z,100948.79
2019-05-17T01:25:08.801Z,100952.55
2019-05-17T01:25:44.676Z,100960.34
2019-05-17T01:26:20.666Z,100960.34
2019-05-17T01:26:57.405Z,100947.92
2019-05-17T01:27:33.507Z,100947.67
2019-05-17T01:28:09.463Z,100955.42
2019-05-17T01:28:46.669Z,100954.55
2019-05-17T01:29:22.865Z,100956.65
2019-05-17T01:29:58.707Z,100956.65
2019-05-17T01:30:37.389Z,100959.31
2019-05-17T01:31:13.781Z,100956.33
2019-05-17T01:31:49.849Z,100960.09
2019-05-17T01:32:26.654Z,100959.77
2019-05-17T01:33:02.896Z,100959.19
2019-05-17T01:33:38.829Z,100950.81
2019-05-17T01:34:16.649Z,100956.73
2019-05-17T01:34:52.671Z,100956.73
2019-05-17T01:35:28.654Z,100962.91
2019-05-17T01:36:06.723Z,100962.91
2019-05-17T01:36:42.278Z,100958.60
2019-05-17T01:37:20.739Z,100959.19
2019-05-17T01:37:56.703Z,100961.47
2019-05-17T01:38:32.646Z,100959.80
2019-05-17T01:39:17.297Z,100959.80
2019-05-17T01:39:46.841Z,100969.80
2019-05-17T01:40:23.023Z,100969.80
2019-05-17T01:40:59.044Z,100968.19
2019-05-17T01:41:37.122Z,100969.80
2019-05-17T01:42:12.681Z,100971.08
2019-05-17T01:42:49.118Z,100971.08
2019-05-17T01:43:27.203Z,100954.88
2019-05-17T01:44:02.680Z,100962.10
2019-05-17T01:44:38.704Z,100962.10
2019-05-17T01:45:16.652Z,100962.62
2019-05-17T01:45:52.447Z,100959.30
2019-05-17T01:46:31.243Z,100961.67
2019-05-17T01:47:07.489Z,100961.67
2019-05-17T01:47:47.281Z,100955.90
2019-05-17T01:48:22.487Z,100955.90
2019-05-17T01:49:01.603Z,100961.52
2019-05-17T01:49:37.501Z,100960.39
2019-05-17T01:50:13.358Z,100955.73
2019-05-17T01:50:49.396Z,100949.67
2019-05-17T01:51:26.361Z,100949.67
2019-05-17T01:52:02.555Z,100949.19
2019-05-17T01:52:38.589Z,100949.19
2019-05-17T01:53:16.460Z,100954.98
2019-05-17T01:53:52.160Z,100950.84
2019-05-17T01:54:28.114Z,100955.66
2019-05-17T01:55:06.431Z,100952.66
2019-05-17T01:55:46.483Z,100957.52
2019-05-17T01:56:22.398Z,100954.55
2019-05-17T01:56:58.362Z,100947.33
2019-05-17T01:57:36.748Z,100961.53
2019-05-17T01:58:12.299Z,100955.82
2019-05-17T01:58:48.218Z,100958.73
2019-05-17T01:59:26.627Z,100950.83
2019-05-17T02:00:02.714Z,100953.48
2019-05-17T02:00:39.246Z,100958.34
2019-05-17T02:01:17.012Z,100950.13
2019-05-17T02:01:57.183Z,100950.58
2019-05-17T02:02:37.137Z,100952.37
2019-05-17T02:03:13.052Z,100953.62
2019-05-17T02:03:49.197Z,100946.30
2019-05-17T02:04:26.836Z,100947.64
2019-05-17T02:05:02.820Z,100944.40
2019-05-17T02:05:38.683Z,100946.88
2019-05-17T02:06:16.564Z,100936.89
2019-05-17T02:06:52.271Z,100938.02
2019-05-17T02:07:28.175Z,100936.72
2019-05-17T02:08:06.432Z,100936.76
2019-05-17T02:08:41.828Z,100943.58
2019-05-17T02:09:33.474Z,100937.41
2019-05-17T02:09:56.827Z,100933.47
2019-05-17T02:10:33.000Z,100937.07
2019-05-17T02:11:08.907Z,100930.90
2019-05-17T02:11:46.964Z,100929.31
2019-05-17T02:12:22.490Z,100932.66
2019-05-17T02:12:58.418Z,100934.38
2019-05-17T02:13:34.398Z,100934.23
2019-05-17T02:14:10.274Z,100936.23
2019-05-17T02:14:46.797Z,100935.22
2019-05-17T02:15:22.964Z,100935.57
2019-05-17T02:16:00.150Z,100939.78
2019-05-17T02:16:37.671Z,100942.31
2019-05-17T02:17:13.740Z,100939.38
2019-05-17T02:17:49.635Z,100937.03
2019-05-17T02:18:26.620Z,100936.89
2019-05-17T02:19:02.782Z,100937.78
2019-05-17T02:19:38.739Z,100938.75
2019-05-17T02:20:17.594Z,100940.52
2019-05-17T02:20:53.875Z,100940.16
2019-05-17T02:21:30.028Z,100946.08
2019-05-17T02:22:07.439Z,100945.36
2019-05-17T02:22:43.664Z,100939.67
2019-05-17T02:23:20.146Z,100940.91
2019-05-17T02:23:59.095Z,100938.34
2019-05-17T02:24:37.005Z,100939.92
2019-05-17T02:25:12.979Z,100939.38
2019-05-17T02:25:48.974Z,100944.86
2019-05-17T02:26:26.656Z,100941.48
2019-05-17T02:27:02.685Z,100941.94
2019-05-17T02:27:41.859Z,100942.63
2019-05-17T02:28:16.824Z,100943.99
2019-05-17T02:28:52.768Z,100940.78
2019-05-17T02:29:32.708Z,100939.19
2019-05-17T02:30:09.233Z,100938.21
2019-05-17T02:30:45.434Z,100947.75
2019-05-17T02:31:24.719Z,100945.73
2019-05-17T02:32:03.530Z,100940.67
2019-05-17T02:32:37.518Z,100943.52
2019-05-17T02:33:13.715Z,100943.65
2019-05-17T02:33:49.627Z,100943.72
2019-05-17T02:34:25.561Z,100944.34
2019-05-17T02:35:03.363Z,100943.29
2019-05-17T02:35:42.917Z,100942.49
2019-05-17T02:36:18.433Z,100942.42
2019-05-17T02:36:54.345Z,100945.20
2019-05-17T02:37:33.181Z,100944.96
2019-05-17T02:38:07.924Z,100945.58
2019-05-17T02:38:43.847Z,100945.15
2019-05-17T02:39:22.960Z,100946.32
2019-05-17T02:40:02.861Z,100939.39
2019-05-17T02:40:35.211Z,100947.03
2019-05-17T02:41:14.185Z,100947.90
2019-05-17T02:41:48.886Z,100946.30
2019-05-17T02:42:24.719Z,100945.30
2019-05-17T02:43:03.250Z,100941.30
2019-05-17T02:43:38.508Z,100946.78
2019-05-17T02:44:14.441Z,100947.89
2019-05-17T02:44:53.102Z,100944.69
2019-05-17T02:45:28.298Z,100943.05
2019-05-17T02:46:04.382Z,100943.67
2019-05-17T02:46:43.101Z,100948.59
2019-05-17T02:47:18.097Z,100946.99
2019-05-17T02:47:56.447Z,100944.89
2019-05-17T02:48:33.872Z,100941.16
2019-05-17T02:49:13.914Z,100938.75
2019-05-17T02:49:52.366Z,100944.48
2019-05-17T02:50:27.832Z,100941.83
2019-05-17T02:51:06.306Z,100943.99
2019-05-17T02:51:45.932Z,100948.06
2019-05-17T02:52:22.969Z,100948.61
2019-05-17T02:52:59.316Z,100949.16
2019-05-17T02:53:35.397Z,100946.15
2019-05-17T02:54:13.271Z,100945.41
2019-05-17T02:54:52.467Z,100944.73
2019-05-17T02:55:28.258Z,100943.38
2019-05-17T02:56:04.907Z,100944.12
2019-05-17T02:56:43.597Z,100942.52
2019-05-17T02:57:22.961Z,100944.37
2019-05-17T02:57:57.423Z,100942.19
2019-05-17T02:58:34.240Z,100940.22
2019-05-17T02:59:13.444Z,100932.02
2019-05-17T02:59:52.551Z,100935.78
2019-05-17T03:00:27.698Z,100930.05
2019-05-17T03:01:04.218Z,100935.44
2019-05-17T03:01:43.902Z,100923.97
2019-05-17T03:02:18.117Z,100927.42
2019-05-17T03:02:54.014Z,100927.86
2019-05-17T03:03:32.301Z,100931.86
2019-05-17T03:04:07.929Z,100925.52
2019-05-17T03:04:43.939Z,100926.80
2019-05-17T03:05:22.974Z,100925.11
2019-05-17T03:05:57.867Z,100924.67
2019-05-17T03:06:33.972Z,100924.69
2019-05-17T03:07:13.299Z,100925.01
2019-05-17T03:07:47.682Z,100923.94
2019-05-17T03:08:23.837Z,100924.63
2019-05-17T03:09:03.120Z,100927.07
2019-05-17T03:09:37.731Z,100926.80
2019-05-17T03:10:24.087Z,100920.02
2019-05-17T03:10:53.512Z,100921.33
2019-05-17T03:11:29.237Z,100921.94
2019-05-17T03:12:05.167Z,100921.40
2019-05-17T03:12:44.335Z,100922.85
2019-05-17T03:13:19.702Z,100927.53
2019-05-17T03:13:55.957Z,100921.41
2019-05-17T03:14:32.761Z,100925.89
2019-05-17T03:15:12.668Z,100919.45
2019-05-17T03:15:47.815Z,100912.73
2019-05-17T03:16:23.937Z,100913.78
2019-05-17T03:17:02.932Z,100912.84
2019-05-17T03:17:37.801Z,100908.92
2019-05-17T03:18:15.217Z,100910.44
2019-05-17T03:18:53.091Z,100906.20
2019-05-17T03:19:32.544Z,100910.44
2019-05-17T03:20:07.987Z,100915.98
2019-05-17T03:20:45.303Z,100908.72
2019-05-17T03:21:23.883Z,100906.54
2019-05-17T03:22:04.381Z,100905.19
2019-05-17T03:22:38.332Z,100900.05
2019-05-17T03:23:14.368Z,100901.31
2019-05-17T03:23:50.315Z,100903.30
2019-05-17T03:24:28.201Z,100899.02
2019-05-17T03:25:04.214Z,100895.78
2019-05-17T03:25:43.780Z,100891.99
2019-05-17T03:26:18.584Z,100894.70
2019-05-17T03:26:54.562Z,100895.33
2019-05-17T03:27:33.516Z,100887.67
2019-05-17T03:28:13.271Z,100885.98
2019-05-17T03:28:53.836Z,100878.17
2019-05-17T03:29:28.278Z,100879.54
2019-05-17T03:30:04.641Z,100885.23
2019-05-17T03:30:47.018Z,100873.86
2019-05-17T03:31:25.663Z,100877.28
2019-05-17T03:32:00.516Z,100878.52
2019-05-17T03:32:37.060Z,100878.33
2019-05-17T03:33:16.447Z,100882.55
2019-05-17T03:33:56.858Z,100878.38
2019-05-17T03:34:37.092Z,100875.55
2019-05-17T03:35:16.820Z,100881.14
2019-05-17T03:35:56.001Z,100877.78
2019-05-17T03:36:28.672Z,100878.48
2019-05-17T03:37:06.132Z,100879.08
2019-05-17T03:37:43.729Z,100872.86
2019-05-17T03:38:22.702Z,100873.33
2019-05-17T03:38:58.332Z,100871.50
2019-05-17T03:39:34.604Z,100870.80
2019-05-17T03:40:27.428Z,100871.97
2019-05-17T03:41:07.253Z,100863.84
2019-05-17T03:41:29.185Z,100867.77
2019-05-17T03:42:04.145Z,100861.41
2019-05-17T03:42:42.765Z,100865.11
2019-05-17T03:43:17.772Z,100862.89
2019-05-17T03:43:53.709Z,100863.32
2019-05-17T03:44:32.988Z,100865.81
2019-05-17T03:45:07.768Z,100860.36
2019-05-17T03:45:43.687Z,100861.76
2019-05-17T03:46:22.945Z,100857.66
2019-05-17T03:46:57.173Z,100859.09
2019-05-17T03:47:33.587Z,100858.69
2019-05-17T03:48:12.733Z,100854.95
2019-05-17T03:48:48.977Z,100859.05
2019-05-17T03:49:25.191Z,100854.86
2019-05-17T03:50:03.227Z,100856.91
2019-05-17T03:50:39.098Z,100854.42
2019-05-17T03:51:15.111Z,100858.98
2019-05-17T03:51:53.170Z,100855.38
2019-05-17T03:52:28.777Z,100857.20
2019-05-17T03:53:04.769Z,100858.36
2019-05-17T03:53:43.890Z,100847.57
2019-05-17T03:54:18.456Z,100849.97
2019-05-17T03:54:55.630Z,100848.59
2019-05-17T03:55:33.104Z,100845.52
2019-05-17T03:56:09.692Z,100843.81
2019-05-17T03:56:45.935Z,100847.91
2019-05-17T03:57:23.857Z,100846.77
2019-05-17T03:58:02.645Z,100843.37
2019-05-17T03:58:37.237Z,100837.91
2019-05-17T03:59:13.299Z,100844.73
2019-05-17T03:59:52.265Z,100845.64
2019-05-17T04:00:27.065Z,100837.33
2019-05-17T04:01:04.230Z,100837.88
2019-05-17T04:01:43.305Z,100839.64
2019-05-17T04:02:18.089Z,100836.09
2019-05-17T04:02:54.119Z,100838.30
2019-05-17T04:03:34.622Z,100835.62
2019-05-17T04:04:07.820Z,100833.09
2019-05-17T04:04:43.690Z,100834.42
2019-05-17T04:05:22.424Z,100833.49
2019-05-17T04:05:57.253Z,100840.74
2019-05-17T04:06:33.495Z,100834.56
2019-05-17T04:07:12.558Z,100838.02
2019-05-17T04:07:47.518Z,100836.89
2019-05-17T04:08:25.024Z,100836.22
2019-05-17T04:09:03.756Z,100834.42
2019-05-17T04:09:38.756Z,100837.85
2019-05-17T04:10:16.696Z,100835.12
2019-05-17T04:10:56.666Z,100836.95
2019-05-17T04:11:36.245Z,100838.55
2019-05-17T04:12:13.337Z,100838.45
2019-05-17T04:12:48.170Z,100836.08
2019-05-17T04:13:25.429Z,100838.00
2019-05-17T04:14:02.953Z,100842.58
2019-05-17T04:14:39.016Z,100843.97
2019-05-17T04:15:16.172Z,100842.33
2019-05-17T04:15:53.014Z,100839.95
2019-05-17T04:16:29.819Z,100841.00
2019-05-17T04:17:06.715Z,100840.94
2019-05-17T04:17:43.824Z,100839.85
2019-05-17T04:18:23.216Z,100843.73
2019-05-17T04:18:58.097Z,100839.45
2019-05-17T04:19:34.058Z,100836.50
2019-05-17T04:20:13.488Z,100833.77
2019-05-17T04:20:48.657Z,100834.69
2019-05-17T04:21:24.613Z,100837.20
2019-05-17T04:22:03.529Z,100832.88
2019-05-17T04:22:38.239Z,100831.52
2019-05-17T04:23:14.085Z,100828.82
2019-05-17T04:23:49.958Z,100832.23
2019-05-17T04:24:25.900Z,100831.78
2019-05-17T04:25:02.985Z,100834.43
2019-05-17T04:25:39.287Z,100835.45
2019-05-17T04:26:15.294Z,100835.91
2019-05-17T04:26:52.303Z,100834.77
2019-05-17T04:27:28.784Z,100831.92
2019-05-17T04:28:04.670Z,100827.48
2019-05-17T04:28:43.803Z,100831.59
2019-05-17T04:29:22.407Z,100828.17
2019-05-17T04:29:56.922Z,100824.76
2019-05-17T04:30:33.166Z,100826.35
2019-05-17T04:31:09.175Z,100823.28
2019-05-17T04:31:45.163Z,100824.76
2019-05-17T04:32:23.405Z,100823.62
2019-05-17T04:32:58.791Z,100823.59
2019-05-17T04:33:36.431Z,100827.11
2019-05-17T04:34:13.731Z,100822.53
2019-05-17T04:34:52.473Z,100827.41
2019-05-17T04:35:32.722Z,100822.28
2019-05-17T04:36:07.678Z,100822.81
2019-05-17T04:36:43.652Z,100824.16
2019-05-17T04:37:22.800Z,100822.97
2019-05-17T04:38:03.693Z,100823.66
2019-05-17T04:38:38.262Z,100820.93
2019-05-17T04:39:14.208Z,100822.17
2019-05-17T04:39:52.537Z,100819.55
2019-05-17T04:40:28.157Z,100825.23
2019-05-17T04:41:04.008Z,100820.93
2019-05-17T04:41:49.102Z,100815.52
2019-05-17T04:42:18.416Z,100817.80
2019-05-17T04:42:54.368Z,100818.26
2019-05-17T04:43:33.203Z,100816.25
2019-05-17T04:44:08.091Z,100813.86
2019-05-17T04:44:44.252Z,100810.67
2019-05-17T04:45:23.015Z,100807.15
2019-05-17T04:46:02.807Z,100813.06
2019-05-17T04:46:38.500Z,100809.08
2019-05-17T04:47:14.376Z,100809.20
2019-05-17T04:47:52.793Z,100804.77
2019-05-17T04:48:28.056Z,100805.80
2019-05-17T04:49:03.927Z,100803.56
2019-05-17T04:49:43.717Z,100798.55
2019-05-17T04:50:22.799Z,100802.68
2019-05-17T04:50:57.239Z,100796.19
2019-05-17T04:51:33.126Z,100793.69
2019-05-17T04:52:09.893Z,100798.95
2019-05-17T04:52:45.791Z,100792.00
2019-05-17T04:53:23.307Z,100791.43
2019-05-17T04:54:02.960Z,100787.33
2019-05-17T04:54:37.230Z,100792.69
2019-05-17T04:55:14.079Z,100789.27
2019-05-17T04:55:53.765Z,100792.00
2019-05-17T04:56:29.491Z,100784.25
2019-05-17T04:57:05.530Z,100782.09
2019-05-17T04:57:43.770Z,100784.02
2019-05-17T04:58:23.020Z,100783.34
2019-05-17T04:58:56.992Z,100782.42
2019-05-17T04:59:34.095Z,100784.13
2019-05-17T05:00:12.899Z,100783.12
2019-05-17T05:00:48.107Z,100785.86
2019-05-17T05:01:23.992Z,100783.35
2019-05-17T05:02:02.879Z,100782.89
2019-05-17T05:02:37.723Z,100782.64
2019-05-17T05:03:13.609Z,100784.70
2019-05-17T05:03:52.309Z,100781.03
2019-05-17T05:04:27.363Z,100780.66
2019-05-17T05:05:03.723Z,100780.98
2019-05-17T05:05:42.562Z,100780.26
2019-05-17T05:06:17.744Z,100777.70
2019-05-17T05:06:53.725Z,100783.97
2019-05-17T05:07:29.750Z,100783.13
2019-05-17T05:08:05.873Z,100779.36
2019-05-17T05:08:42.462Z,100786.96
2019-05-17T05:09:18.618Z,100781.72
2019-05-17T05:09:54.590Z,100783.03
2019-05-17T05:10:33.779Z,100783.47
2019-05-17T05:11:12.442Z,100786.08
2019-05-17T05:11:57.173Z,100782.50
2019-05-17T05:12:24.937Z,100781.98
2019-05-17T05:13:03.038Z,100781.95
2019-05-17T05:13:42.412Z,100780.36
2019-05-17T05:14:17.157Z,100776.50
2019-05-17T05:14:54.569Z,100782.19
2019-05-17T05:15:52.030Z,100780.61
2019-05-17T05:16:27.313Z,100776.58
2019-05-17T05:17:03.340Z,100777.42
2019-05-17T05:17:42.222Z,100777.63
2019-05-17T05:18:17.487Z,100781.92
2019-05-17T05:18:53.380Z,100776.80
2019-05-17T05:19:29.390Z,100769.76
2019-05-17T05:20:05.878Z,100773.28
2019-05-17T05:20:43.465Z,100772.62
2019-05-17T05:21:19.633Z,100771.71
2019-05-17T05:21:55.720Z,100771.48
2019-05-17T05:22:32.950Z,100764.31
2019-05-17T05:23:09.207Z,100768.30
2019-05-17T05:23:45.142Z,100765.80
2019-05-17T05:24:22.355Z,100764.31
2019-05-17T05:24:58.376Z,100765.77
2019-05-17T05:25:34.293Z,100759.13
2019-05-17T05:26:12.022Z,100758.44
2019-05-17T05:26:47.900Z,100752.28
2019-05-17T05:27:23.837Z,100750.22
2019-05-17T05:27:59.760Z,100749.09
2019-05-17T05:28:35.782Z,100750.48
2019-05-17T05:29:12.768Z,100747.38
2019-05-17T05:29:48.886Z,100750.39
2019-05-17T05:30:24.898Z,100748.97
2019-05-17T05:31:01.874Z,100743.80
2019-05-17T05:31:38.227Z,100743.70
2019-05-17T05:32:14.100Z,100744.84
2019-05-17T05:32:52.390Z,100743.02
2019-05-17T05:33:27.702Z,100750.05
2019-05-17T05:34:03.680Z,100741.25
2019-05-17T05:34:39.577Z,100740.89
2019-05-17T05:35:15.509Z,100744.49
2019-05-17T05:35:51.790Z,100739.94
2019-05-17T05:36:27.835Z,100744.94
2019-05-17T05:37:03.717Z,100738.45
2019-05-17T05:37:41.961Z,100741.18
2019-05-17T05:38:17.375Z,100740.38
2019-05-17T05:38:53.325Z,100737.42
2019-05-17T05:39:29.221Z,100730.61
2019-05-17T05:40:05.171Z,100733.10
2019-05-17T05:40:41.484Z,100727.88
2019-05-17T05:41:17.434Z,100731.09
2019-05-17T05:42:06.263Z,100733.73
2019-05-17T05:42:31.586Z,100735.75
2019-05-17T05:43:07.630Z,100734.48
2019-05-17T05:43:43.501Z,100731.73
2019-05-17T05:44:21.428Z,100734.57
2019-05-17T05:44:57.438Z,100729.56
2019-05-17T05:45:34.018Z,100733.36
2019-05-17T05:46:11.667Z,100732.56
2019-05-17T05:46:47.859Z,100733.00
2019-05-17T05:47:23.786Z,100728.89
2019-05-17T05:48:01.788Z,100729.22
2019-05-17T05:48:38.071Z,100720.45
2019-05-17T05:49:13.990Z,100719.16
2019-05-17T05:49:51.924Z,100724.78
2019-05-17T05:50:27.853Z,100726.94
2019-05-17T05:51:05.062Z,100723.28
2019-05-17T05:51:42.466Z,100720.33
2019-05-17T05:52:18.812Z,100725.08
2019-05-17T05:52:54.800Z,100719.50
2019-05-17T05:53:32.517Z,100716.88
2019-05-17T05:54:08.460Z,100720.50
2019-05-17T05:54:44.397Z,100716.27
2019-05-17T05:55:23.175Z,100721.33
2019-05-17T05:55:58.068Z,100714.28
2019-05-17T05:56:33.937Z,100711.89
2019-05-17T05:57:12.458Z,100709.73
2019-05-17T05:57:47.600Z,100718.80
2019-05-17T05:58:24.101Z,100709.36
2019-05-17T05:59:02.683Z,100711.52
2019-05-17T05:59:37.950Z,100711.05
2019-05-17T06:00:14.372Z,100705.37
2019-05-17T06:00:52.901Z,100699.36
2019-05-17T06:01:28.075Z,100704.25
2019-05-17T06:02:04.005Z,100703.45
2019-05-17T06:02:41.925Z,100695.84
2019-05-17T06:03:17.758Z,100695.70
2019-05-17T06:03:53.767Z,100696.03
2019-05-17T06:04:31.804Z,100692.52
2019-05-17T06:05:07.772Z,100693.08
2019-05-17T06:05:43.899Z,100690.36
2019-05-17T06:06:21.555Z,100687.41
2019-05-17T06:06:57.518Z,100692.05
2019-05-17T06:07:33.469Z,100690.42
2019-05-17T06:08:11.951Z,100693.95
2019-05-17T06:08:47.168Z,100692.58
2019-05-17T06:09:23.071Z,100689.36
2019-05-17T06:09:58.986Z,100689.33
2019-05-17T06:10:34.991Z,100691.06
2019-05-17T06:11:12.292Z,100681.53
2019-05-17T06:11:48.492Z,100685.38
2019-05-17T06:12:28.030Z,100682.75
2019-05-17T06:13:03.471Z,100685.78
2019-05-17T06:13:52.367Z,100683.69
2019-05-17T06:14:28.713Z,100676.17
2019-05-17T06:15:04.766Z,100675.24
2019-05-17T06:15:42.979Z,100678.30
2019-05-17T06:16:18.506Z,100678.30
2019-05-17T06:16:54.383Z,100680.22
2019-05-17T06:17:31.768Z,100674.77
2019-05-17T06:18:08.359Z,100677.41
2019-05-17T06:18:44.225Z,100681.16
2019-05-17T06:19:22.253Z,100678.66
2019-05-17T06:19:57.900Z,100683.88
2019-05-17T06:20:34.832Z,100672.75
2019-05-17T06:21:12.217Z,100677.53
2019-05-17T06:21:48.305Z,100670.07
2019-05-17T06:22:24.248Z,100671.06
2019-05-17T06:23:02.409Z,100669.04
2019-05-17T06:23:38.089Z,100669.50
2019-05-17T06:24:14.112Z,100667.71
2019-05-17T06:24:52.042Z,100670.00
2019-05-17T06:25:27.692Z,100668.64
2019-05-17T06:26:04.599Z,100665.02
2019-05-17T06:26:42.163Z,100662.99
2019-05-17T06:27:18.327Z,100665.55
2019-05-17T06:27:54.392Z,100665.11
2019-05-17T06:28:31.890Z,100662.52
2019-05-17T06:29:08.224Z,100659.45
2019-05-17T06:29:46.825Z,100661.28
2019-05-17T06:30:22.839Z,100663.67
2019-05-17T06:30:58.883Z,100662.98
2019-05-17T06:31:36.958Z,100662.41
2019-05-17T06:32:12.736Z,100663.57
2019-05-17T06:32:48.773Z,100662.56
2019-05-17T06:33:30.733Z,100661.54
2019-05-17T06:34:02.752Z,100659.54
2019-05-17T06:34:38.855Z,100659.05
2019-05-17T06:35:15.504Z,100662.91
2019-05-17T06:35:52.552Z,100655.62
2019-05-17T06:36:29.137Z,100655.62
2019-05-17T06:37:06.531Z,100654.60
2019-05-17T06:37:42.760Z,100648.81
2019-05-17T06:38:18.686Z,100651.67
2019-05-17T06:38:54.643Z,100643.91
2019-05-17T06:39:32.983Z,100648.71
2019-05-17T06:40:09.093Z,100649.42
2019-05-17T06:40:45.123Z,100646.86
2019-05-17T06:41:21.571Z,100645.86
2019-05-17T06:41:57.720Z,100647.16
2019-05-17T06:42:40.609Z,100649.70
2019-05-17T06:43:13.316Z,100639.85
2019-05-17T06:43:49.389Z,100638.72
2019-05-17T06:44:26.798Z,100640.77
2019-05-17T06:45:03.068Z,100637.84
2019-05-17T06:45:38.986Z,100637.61
2019-05-17T06:46:14.896Z,100632.98
2019-05-17T06:46:51.912Z,100638.77
2019-05-17T06:47:28.074Z,100636.86
2019-05-17T06:48:03.947Z,100636.52
2019-05-17T06:48:42.163Z,100635.81
2019-05-17T06:49:17.613Z,100628.75
2019-05-17T06:49:53.680Z,100631.72
2019-05-17T06:50:29.734Z,100632.88
2019-05-17T06:51:05.591Z,100624.44
2019-05-17T06:51:42.656Z,100624.66
2019-05-17T06:52:19.543Z,100624.91
2019-05-17T06:52:55.549Z,100622.50
2019-05-17T06:53:32.337Z,100624.98
2019-05-17T06:54:08.688Z,100628.08
2019-05-17T06:54:44.665Z,100627.37
2019-05-17T06:55:24.279Z,100626.91
2019-05-17T06:56:02.614Z,100622.23
2019-05-17T06:56:38.292Z,100625.77
2019-05-17T06:57:14.749Z,100622.23
2019-05-17T06:57:52.811Z,100619.73
2019-05-17T06:58:31.405Z,100622.91
2019-05-17T06:59:07.193Z,100614.71
2019-05-17T06:59:43.267Z,100616.66